createdAt,value
2023-04-23T00:00:57.827Z,16.80
2023-04-23T00:03:27.573Z,17.97
2023-04-23T00:05:59.290Z,15.30
2023-04-23T00:08:28.359Z,22.17
2023-04-23T00:10:58.274Z,19.13
2023-04-23T00:13:26.311Z,19.23
2023-04-23T00:15:54.518Z,18.10
2023-04-23T00:18:23.621Z,20.47
2023-04-23T00:20:51.834Z,20.87
2023-04-23T00:23:19.591Z,18.97
2023-04-23T00:25:47.269Z,15.67
2023-04-23T00:28:18.743Z,16.67
2023-04-23T00:30:47.353Z,16.50
2023-04-23T00:33:16.099Z,15.30
2023-04-23T00:35:44.143Z,14.90
2023-04-23T00:38:11.883Z,15.10
2023-04-23T00:40:39.822Z,15.27
2023-04-23T00:43:10.563Z,14.87
2023-04-23T00:45:39.801Z,15.20
2023-04-23T00:48:08.348Z,15.80
2023-04-23T00:50:37.274Z,15.37
2023-04-23T00:53:06.463Z,16.53
2023-04-23T00:55:35.314Z,15.50
2023-04-23T00:58:03.172Z,15.40
2023-04-23T01:00:31.382Z,16.17
2023-04-23T01:03:01.516Z,16.83
2023-04-23T01:05:29.453Z,16.97
2023-04-23T01:07:57.945Z,18.10
2023-04-23T01:10:25.922Z,16.60
2023-04-23T01:12:54.007Z,17.07
2023-04-23T01:15:22.450Z,17.73
2023-04-23T01:17:50.255Z,16.97
2023-04-23T01:20:19.465Z,17.27
2023-04-23T01:22:48.871Z,17.20
2023-04-23T01:25:17.010Z,17.57
2023-04-23T01:27:45.331Z,18.20
2023-04-23T01:30:14.007Z,18.67
2023-04-23T01:32:42.733Z,18.40
2023-04-23T01:35:13.144Z,18.60
2023-04-23T01:37:42.237Z,18.70
2023-04-23T01:40:12.426Z,18.50
2023-04-23T01:42:41.768Z,18.63
2023-04-23T01:45:10.859Z,18.47
2023-04-23T01:47:40.199Z,18.60
2023-04-23T01:50:09.247Z,19.40
2023-04-23T01:52:37.419Z,18.77
2023-04-23T01:55:06.191Z,18.40
2023-04-23T01:57:36.069Z,20.57
2023-04-23T02:00:08.858Z,20.80
2023-04-23T02:02:37.468Z,24.43
2023-04-23T02:05:06.222Z,20.33
2023-04-23T02:07:34.547Z,21.33
2023-04-23T02:10:03.831Z,21.20
2023-04-23T02:12:31.565Z,21.83
2023-04-23T02:15:01.110Z,22.37
2023-04-23T02:17:29.840Z,21.20
2023-04-23T02:19:58.905Z,22.27
2023-04-23T02:22:26.690Z,21.57
2023-04-23T02:24:55.217Z,21.97
2023-04-23T02:27:24.396Z,21.23
2023-04-23T02:29:52.000Z,21.70
2023-04-23T02:32:21.650Z,20.93
2023-04-23T02:34:49.580Z,20.97
2023-04-23T02:37:17.556Z,22.90
2023-04-23T02:39:45.395Z,21.50
2023-04-23T02:42:13.206Z,22.93
2023-04-23T02:44:41.479Z,22.53
2023-04-23T02:47:09.424Z,22.50
2023-04-23T02:49:38.661Z,22.40
2023-04-23T02:52:06.944Z,22.97
2023-04-23T02:54:36.970Z,23.47
2023-04-23T02:57:04.706Z,22.57
2023-04-23T02:59:32.544Z,22.50
2023-04-23T03:02:00.478Z,23.97
2023-04-23T03:04:28.311Z,23.20
2023-04-23T03:06:57.685Z,24.97
2023-04-23T03:09:25.895Z,24.17
2023-04-23T03:11:53.559Z,23.37
2023-04-23T03:14:21.296Z,23.60
2023-04-23T03:16:49.017Z,24.13
2023-04-23T03:19:17.186Z,22.30
2023-04-23T03:21:44.933Z,22.60
2023-04-23T03:24:15.207Z,22.10
2023-04-23T03:26:44.219Z,21.70
2023-04-23T03:29:12.254Z,22.63
2023-04-23T03:31:39.952Z,21.40
2023-04-23T03:34:08.200Z,23.13
2023-04-23T03:36:36.370Z,22.00
2023-04-23T03:39:04.355Z,23.53
2023-04-23T03:41:33.628Z,22.77
2023-04-23T03:44:01.552Z,22.57
2023-04-23T03:46:30.247Z,22.70
2023-04-23T03:48:58.175Z,22.93
2023-04-23T03:51:27.271Z,24.30
2023-04-23T03:53:56.459Z,22.77
2023-04-23T03:56:27.135Z,24.17
2023-04-23T03:58:56.491Z,24.47
2023-04-23T04:01:24.620Z,23.43
2023-04-23T04:03:52.585Z,23.63
2023-04-23T04:06:20.651Z,24.53
2023-04-23T04:08:48.288Z,24.23
2023-04-23T04:11:16.189Z,24.50
2023-04-23T04:13:44.781Z,23.80
2023-04-23T04:16:14.017Z,24.80
2023-04-23T04:18:42.895Z,25.57
2023-04-23T04:21:10.741Z,25.10
2023-04-23T04:23:39.973Z,27.27
2023-04-23T04:26:09.430Z,24.60
2023-04-23T04:28:37.552Z,23.50
2023-04-23T04:31:05.745Z,23.50
2023-04-23T04:33:35.780Z,23.47
2023-04-23T04:36:05.359Z,24.27
2023-04-23T04:38:33.120Z,25.03
2023-04-23T04:41:02.551Z,23.93
2023-04-23T04:43:30.470Z,24.77
2023-04-23T04:45:59.316Z,25.93
2023-04-23T04:48:27.125Z,23.33
2023-04-23T04:50:56.821Z,23.90
2023-04-23T04:53:24.510Z,23.40
2023-04-23T04:55:52.252Z,25.70
2023-04-23T04:58:20.043Z,24.77
2023-04-23T05:00:51.961Z,24.37
2023-04-23T05:03:20.211Z,25.97
2023-04-23T05:05:49.424Z,25.00
2023-04-23T05:08:18.800Z,24.73
2023-04-23T05:10:46.901Z,24.80
2023-04-23T05:13:14.647Z,25.97
2023-04-23T05:15:43.147Z,25.37
2023-04-23T05:18:11.984Z,26.43
2023-04-23T05:20:41.218Z,23.53
2023-04-23T05:23:08.877Z,25.53
2023-04-23T05:25:38.372Z,26.47
2023-04-23T05:28:08.845Z,24.63
2023-04-23T05:30:37.542Z,26.63
2023-04-23T05:33:05.566Z,27.07
2023-04-23T05:35:33.821Z,26.17
2023-04-23T05:38:02.766Z,27.07
2023-04-23T05:40:30.432Z,23.60
2023-04-23T05:43:01.031Z,23.87
2023-04-23T05:45:28.823Z,26.97
2023-04-23T05:47:57.115Z,24.90
2023-04-23T05:50:26.298Z,23.57
2023-04-23T05:52:54.489Z,24.57
2023-04-23T05:55:23.878Z,25.03
2023-04-23T05:57:52.223Z,24.03
2023-04-23T06:00:22.126Z,23.90
2023-04-23T06:02:50.144Z,23.60
2023-04-23T06:05:18.180Z,25.07
2023-04-23T06:07:46.747Z,24.30
2023-04-23T06:10:14.608Z,24.23
2023-04-23T06:12:42.496Z,24.90
2023-04-23T06:15:12.426Z,24.33
2023-04-23T06:17:41.884Z,23.37
2023-04-23T06:20:12.069Z,23.30
2023-04-23T06:22:39.991Z,24.30
2023-04-23T06:25:08.619Z,24.63
2023-04-23T06:27:36.911Z,24.67
2023-04-23T06:30:05.544Z,24.47
2023-04-23T06:32:33.541Z,23.57
2023-04-23T06:35:03.176Z,24.33
2023-04-23T06:37:32.924Z,23.20
2023-04-23T06:40:02.133Z,22.73
2023-04-23T06:42:29.975Z,22.93
2023-04-23T06:44:59.563Z,21.40
2023-04-23T06:47:27.360Z,21.83
2023-04-23T06:49:55.299Z,22.20
2023-04-23T06:52:24.662Z,21.33
2023-04-23T06:54:52.936Z,20.83
2023-04-23T06:57:21.912Z,20.00
2023-04-23T06:59:50.417Z,20.60
2023-04-23T07:02:18.160Z,20.67
2023-04-23T07:04:46.933Z,20.10
2023-04-23T07:07:15.222Z,21.00
2023-04-23T07:09:44.960Z,20.47
2023-04-23T07:12:12.872Z,19.03
2023-04-23T07:14:41.703Z,19.23
2023-04-23T07:17:11.130Z,18.63
2023-04-23T07:19:38.775Z,19.23
2023-04-23T07:22:06.991Z,17.83
2023-04-23T07:24:35.194Z,17.37
2023-04-23T07:27:05.412Z,18.00
2023-04-23T07:29:34.458Z,17.63
2023-04-23T07:32:02.494Z,18.10
2023-04-23T07:34:30.643Z,17.23
2023-04-23T07:36:58.382Z,16.63
2023-04-23T07:39:26.062Z,16.53
2023-04-23T07:41:54.132Z,15.43
2023-04-23T07:44:23.288Z,15.87
2023-04-23T07:46:51.325Z,15.13
2023-04-23T07:49:19.117Z,15.23
2023-04-23T07:51:47.706Z,15.17
2023-04-23T07:54:15.416Z,13.50
2023-04-23T07:56:43.555Z,13.10
2023-04-23T07:59:11.944Z,12.97
2023-04-23T08:01:42.048Z,12.20
2023-04-23T08:04:10.073Z,12.47
2023-04-23T08:06:37.911Z,10.30
2023-04-23T08:09:06.553Z,9.73
2023-04-23T08:11:34.403Z,8.33
2023-04-23T08:14:02.914Z,9.10
2023-04-23T08:16:31.229Z,7.80
2023-04-23T08:21:31.333Z,7.27
2023-04-23T08:23:59.100Z,6.93
2023-04-23T08:26:27.300Z,7.30
2023-04-23T08:28:55.362Z,7.07
2023-04-23T08:31:26.911Z,6.83
2023-04-23T08:33:55.710Z,7.53
2023-04-23T08:36:26.237Z,7.27
2023-04-23T08:38:54.047Z,7.30
2023-04-23T08:41:25.856Z,7.20
2023-04-23T08:44:09.080Z,6.27
2023-04-23T08:46:38.261Z,6.07
2023-04-23T08:49:09.057Z,5.87
2023-04-23T08:51:43.229Z,5.63
2023-04-23T08:54:16.178Z,4.90
2023-04-23T08:56:44.304Z,4.60
2023-04-23T08:59:12.608Z,5.10
2023-04-23T09:01:40.662Z,5.10
2023-04-23T09:04:09.163Z,4.27
2023-04-23T09:06:38.823Z,4.30
2023-04-23T09:09:08.406Z,4.27
2023-04-23T09:11:37.902Z,4.80
2023-04-23T09:14:05.989Z,4.30
2023-04-23T09:16:34.342Z,4.70
2023-04-23T09:19:02.691Z,4.53
2023-04-23T09:21:31.906Z,4.30
2023-04-23T09:24:06.362Z,4.53
2023-04-23T09:26:34.426Z,4.37
2023-04-23T09:29:02.201Z,3.77
2023-04-23T09:31:32.227Z,3.73
2023-04-23T09:34:00.248Z,3.90
2023-04-23T09:36:28.687Z,4.10
2023-04-23T09:38:57.763Z,3.63
2023-04-23T09:41:29.035Z,3.70
2023-04-23T09:43:57.687Z,3.57
2023-04-23T09:46:35.836Z,3.53
2023-04-23T09:49:06.989Z,3.90
2023-04-23T09:51:37.666Z,3.70
2023-04-23T09:54:05.966Z,3.80
2023-04-23T09:56:35.485Z,4.10
2023-04-23T09:59:03.209Z,3.77
2023-04-23T10:01:32.231Z,3.33
2023-04-23T10:04:00.226Z,3.07
2023-04-23T10:09:04.990Z,3.50
2023-04-23T10:11:33.353Z,2.93
2023-04-23T10:14:03.124Z,3.50
2023-04-23T10:16:38.881Z,3.37
2023-04-23T10:19:19.711Z,2.57
2023-04-23T10:21:54.907Z,3.87
2023-04-23T10:24:30.907Z,3.27
2023-04-23T10:27:03.204Z,2.93
2023-04-23T10:29:34.910Z,3.03
2023-04-23T10:32:04.458Z,3.03
2023-04-23T10:34:33.566Z,3.20
2023-04-23T10:37:03.268Z,3.53
2023-04-23T10:39:35.307Z,3.10
2023-04-23T10:42:05.312Z,2.57
2023-04-23T10:47:15.172Z,2.90
2023-04-23T10:49:44.230Z,3.20
2023-04-23T10:52:20.330Z,2.97
2023-04-23T10:54:51.084Z,2.80
2023-04-23T10:57:19.548Z,2.53
2023-04-23T10:59:56.332Z,2.70
2023-04-23T11:02:25.760Z,2.97
2023-04-23T11:04:57.281Z,2.40
2023-04-23T11:07:27.685Z,3.00
2023-04-23T11:09:57.729Z,3.73
2023-04-23T11:12:33.644Z,2.17
2023-04-23T11:15:12.320Z,2.50
2023-04-23T11:18:00.968Z,2.23
2023-04-23T11:20:28.902Z,2.30
2023-04-23T11:22:56.639Z,2.23
2023-04-23T11:25:26.428Z,2.73
2023-04-23T11:27:56.000Z,2.30
2023-04-23T11:30:28.458Z,2.40
2023-04-23T11:33:00.339Z,2.20
2023-04-23T11:35:29.465Z,2.50
2023-04-23T11:37:57.797Z,2.33
2023-04-23T11:40:26.155Z,2.43
2023-04-23T11:42:55.571Z,2.30
2023-04-23T11:45:26.997Z,2.20
2023-04-23T11:47:56.987Z,2.10
2023-04-23T11:50:26.406Z,2.60
2023-04-23T11:52:55.191Z,2.50
2023-04-23T11:55:24.032Z,2.53
2023-04-23T11:57:53.215Z,2.20
2023-04-23T12:00:22.966Z,2.00
2023-04-23T12:02:58.507Z,2.23
2023-04-23T12:05:30.293Z,2.20
2023-04-23T12:08:09.215Z,1.93
2023-04-23T12:10:43.708Z,2.20
2023-04-23T12:13:15.453Z,2.57
2023-04-23T12:15:50.579Z,2.17
2023-04-23T12:18:20.777Z,2.10
2023-04-23T12:20:48.457Z,2.00
2023-04-23T12:23:16.408Z,2.00
2023-04-23T12:25:44.132Z,2.00
2023-04-23T12:28:12.576Z,2.00
2023-04-23T12:30:45.574Z,1.70
2023-04-23T12:33:13.604Z,1.70
2023-04-23T12:35:44.278Z,1.60
2023-04-23T12:38:24.626Z,1.83
2023-04-23T12:40:52.433Z,2.10
2023-04-23T12:43:20.177Z,1.77
2023-04-23T12:45:47.997Z,1.50
2023-04-23T12:48:16.224Z,1.63
2023-04-23T12:50:46.460Z,1.58
2023-04-23T12:53:14.460Z,1.33
2023-04-23T12:55:43.303Z,1.50
2023-04-23T12:58:10.956Z,1.70
2023-04-23T13:00:39.243Z,1.57
2023-04-23T13:03:07.914Z,1.50
2023-04-23T13:05:36.520Z,1.83
2023-04-23T13:08:07.316Z,1.50
2023-04-23T13:10:35.595Z,1.30
2023-04-23T13:13:03.260Z,1.40
2023-04-23T13:15:31.070Z,1.37
2023-04-23T13:18:00.250Z,1.30
2023-04-23T13:20:28.375Z,1.20
2023-04-23T13:22:56.472Z,1.40
2023-04-23T13:25:25.924Z,1.20
2023-04-23T13:27:53.649Z,1.30
2023-04-23T13:30:21.511Z,1.20
2023-04-23T13:32:49.661Z,1.15
2023-04-23T13:35:18.241Z,0.85
2023-04-23T13:37:46.158Z,1.10
2023-04-23T13:40:15.184Z,1.20
2023-04-23T13:42:44.410Z,1.02
2023-04-23T13:45:14.784Z,1.20
2023-04-23T13:47:42.670Z,1.38
2023-04-23T13:50:11.621Z,1.20
2023-04-23T13:52:39.957Z,1.10
2023-04-23T13:55:09.508Z,1.25
2023-04-23T13:57:38.593Z,1.20
2023-04-23T14:00:09.381Z,1.35
2023-04-23T14:02:37.228Z,1.20
2023-04-23T14:05:06.604Z,1.10
2023-04-23T14:07:34.914Z,1.27
2023-04-23T14:10:02.948Z,1.37
2023-04-23T14:12:30.961Z,1.20
2023-04-23T14:14:59.268Z,1.60
2023-04-23T14:17:28.923Z,1.87
2023-04-23T14:19:57.369Z,1.80
2023-04-23T14:22:25.579Z,1.80
2023-04-23T14:25:03.607Z,2.50
2023-04-23T14:27:35.814Z,2.03
2023-04-23T14:30:06.363Z,1.97
2023-04-23T14:32:37.031Z,1.73
2023-04-23T14:35:05.321Z,2.20
2023-04-23T14:37:33.232Z,1.60
2023-04-23T14:40:00.932Z,1.90
2023-04-23T14:42:29.651Z,1.60
2023-04-23T14:45:01.433Z,1.85
2023-04-23T14:47:31.974Z,1.70
2023-04-23T14:50:01.499Z,1.77
2023-04-23T14:52:31.561Z,1.73
2023-04-23T14:54:59.199Z,1.58
2023-04-23T14:57:27.564Z,1.80
2023-04-23T14:59:56.189Z,1.45
2023-04-23T15:02:23.890Z,1.60
2023-04-23T15:04:52.742Z,1.60
2023-04-23T15:07:22.023Z,1.58
2023-04-23T15:09:51.393Z,2.35
2023-04-23T15:12:46.502Z,1.40
2023-04-23T15:15:30.515Z,2.28
2023-04-23T15:18:06.186Z,1.60
2023-04-23T15:20:33.917Z,1.45
2023-04-23T15:23:03.147Z,1.40
2023-04-23T15:25:33.108Z,1.77
2023-04-23T15:28:01.126Z,1.50
2023-04-23T15:30:29.770Z,1.60
2023-04-23T15:32:57.779Z,1.33
2023-04-23T15:35:26.789Z,1.40
2023-04-23T15:37:56.048Z,1.50
2023-04-23T15:40:27.285Z,1.83
2023-04-23T15:42:55.058Z,1.80
2023-04-23T15:45:23.334Z,1.53
2023-04-23T15:47:53.324Z,1.57
2023-04-23T15:50:23.412Z,1.63
2023-04-23T15:52:52.597Z,1.30
2023-04-23T15:55:21.425Z,1.70
2023-04-23T15:57:50.847Z,1.47
2023-04-23T16:00:21.570Z,1.60
2023-04-23T16:02:49.751Z,1.70
2023-04-23T16:05:18.853Z,1.63
2023-04-23T16:07:47.080Z,1.53
2023-04-23T16:10:15.004Z,1.40
2023-04-23T16:12:45.783Z,1.63
2023-04-23T16:15:15.604Z,1.30
2023-04-23T16:17:44.518Z,1.40
2023-04-23T16:20:12.901Z,1.53
2023-04-23T16:22:41.208Z,1.50
2023-04-23T16:25:10.914Z,1.57
2023-04-23T16:27:39.073Z,1.30
2023-04-23T16:30:08.529Z,1.30
2023-04-23T16:32:37.984Z,1.40
2023-04-23T16:35:06.606Z,1.33
2023-04-23T16:37:34.328Z,1.30
2023-04-23T16:40:02.363Z,1.50
2023-04-23T16:42:30.485Z,1.67
2023-04-23T16:44:58.181Z,2.07
2023-04-23T16:47:26.131Z,2.57
2023-04-23T16:49:55.684Z,2.87
2023-04-23T16:52:24.117Z,3.40
2023-04-23T16:54:51.898Z,2.80
2023-04-23T16:57:19.855Z,3.50
2023-04-23T16:59:48.081Z,3.83
2023-04-23T17:02:15.744Z,2.50
2023-04-23T17:04:43.750Z,2.10
2023-04-23T17:07:13.882Z,2.50
2023-04-23T17:09:41.621Z,2.17
2023-04-23T17:12:09.589Z,1.87
2023-04-23T17:14:37.769Z,2.00
2023-04-23T17:17:05.526Z,1.70
2023-04-23T17:19:34.228Z,1.70
2023-04-23T17:22:02.026Z,1.70
2023-04-23T17:24:31.167Z,1.53
2023-04-23T17:26:59.176Z,1.60
2023-04-23T17:29:26.804Z,1.30
2023-04-23T17:31:55.359Z,1.40
2023-04-23T17:34:23.263Z,1.40
2023-04-23T17:36:51.221Z,1.30
2023-04-23T17:39:22.977Z,1.67
2023-04-23T17:41:52.919Z,1.30
2023-04-23T17:44:20.648Z,1.30
2023-04-23T17:46:49.103Z,1.60
2023-04-23T17:49:16.744Z,1.20
2023-04-23T17:51:45.816Z,1.87
2023-04-23T17:54:13.495Z,3.30
2023-04-23T17:56:41.293Z,3.67
2023-04-23T17:59:11.168Z,2.30
2023-04-23T18:01:38.981Z,2.10
2023-04-23T18:04:07.234Z,1.30
2023-04-23T18:06:35.863Z,1.20
2023-04-23T18:09:03.993Z,1.40
2023-04-23T18:11:32.296Z,1.40
2023-04-23T18:14:00.052Z,1.40
2023-04-23T18:16:30.019Z,1.20
2023-04-23T18:18:57.881Z,1.30
2023-04-23T18:21:26.235Z,1.30
2023-04-23T18:23:53.991Z,1.37
2023-04-23T18:26:22.223Z,1.60
2023-04-23T18:28:51.281Z,1.57
2023-04-23T18:31:19.355Z,1.50
2023-04-23T18:33:55.834Z,1.83
2023-04-23T18:36:27.360Z,1.60
2023-04-23T18:38:55.147Z,5.20
2023-04-23T18:41:22.894Z,8.00
2023-04-23T18:43:50.817Z,3.67
2023-04-23T18:46:19.047Z,2.33
2023-04-23T18:48:52.623Z,2.07
2023-04-23T18:51:28.175Z,2.10
2023-04-23T18:53:56.380Z,1.80
2023-04-23T18:56:27.757Z,1.77
2023-04-23T18:58:55.710Z,12.57
2023-04-23T19:01:24.310Z,4.20
2023-04-23T19:03:52.307Z,3.50
2023-04-23T19:06:23.206Z,3.10
2023-04-23T19:08:52.755Z,2.97
2023-04-23T19:11:25.856Z,2.80
2023-04-23T19:13:54.167Z,2.70
2023-04-23T19:16:21.958Z,2.30
2023-04-23T19:18:50.076Z,2.50
2023-04-23T19:21:18.278Z,2.93
2023-04-23T19:23:47.904Z,2.13
2023-04-23T19:26:16.853Z,2.20
2023-04-23T19:28:44.748Z,2.00
2023-04-23T19:31:14.039Z,2.10
2023-04-23T19:33:46.859Z,2.80
2023-04-23T19:36:15.280Z,2.33
2023-04-23T19:38:43.478Z,2.30
2023-04-23T19:41:13.237Z,2.90
2023-04-23T19:43:41.539Z,2.50
2023-04-23T19:46:09.451Z,2.40
2023-04-23T19:48:37.470Z,2.70
2023-04-23T19:51:05.476Z,2.37
2023-04-23T19:53:33.849Z,2.80
2023-04-23T19:56:01.775Z,2.73
2023-04-23T19:58:31.165Z,2.57
2023-04-23T20:00:59.028Z,5.27
2023-04-23T20:03:27.787Z,4.13
2023-04-23T20:05:59.018Z,4.13
2023-04-23T20:08:29.478Z,3.53
2023-04-23T20:10:58.118Z,4.00
2023-04-23T20:13:27.125Z,3.63
2023-04-23T20:15:56.548Z,2.80
2023-04-23T20:18:29.019Z,3.50
2023-04-23T20:20:56.776Z,3.57
2023-04-23T20:23:24.732Z,3.50
2023-04-23T20:25:52.488Z,2.40
2023-04-23T20:28:20.129Z,2.10
2023-04-23T20:30:47.989Z,2.30
2023-04-23T20:33:18.723Z,2.40
2023-04-23T20:35:47.813Z,2.40
2023-04-23T20:38:19.425Z,2.20
2023-04-23T20:40:47.311Z,2.90
2023-04-23T20:43:15.511Z,2.10
2023-04-23T20:45:44.100Z,2.10
2023-04-23T20:48:12.278Z,2.00
2023-04-23T20:50:41.705Z,1.80
2023-04-23T20:53:09.473Z,2.10
2023-04-23T20:55:37.166Z,2.00
2023-04-23T20:58:04.866Z,2.13
2023-04-23T21:00:32.865Z,1.87
2023-04-23T21:03:00.876Z,1.80
2023-04-23T21:05:28.781Z,2.07
2023-04-23T21:07:57.970Z,1.90
2023-04-23T21:10:25.846Z,2.00
2023-04-23T21:12:54.359Z,1.90
2023-04-23T21:15:22.479Z,1.73
2023-04-23T21:17:51.445Z,2.00
2023-04-23T21:20:19.219Z,2.00
2023-04-23T21:22:46.902Z,2.10
2023-04-23T21:25:16.637Z,2.20
2023-04-23T21:27:46.669Z,1.90
2023-04-23T21:30:24.222Z,2.20
2023-04-23T21:32:52.252Z,2.17
2023-04-23T21:35:20.044Z,2.00
2023-04-23T21:37:48.486Z,2.67
2023-04-23T21:40:18.039Z,2.10
2023-04-23T21:42:47.708Z,2.07
2023-04-23T21:45:19.183Z,1.90
2023-04-23T21:47:47.303Z,2.37
2023-04-23T21:50:17.590Z,1.90
2023-04-23T21:52:46.103Z,2.00
2023-04-23T21:55:13.871Z,1.87
2023-04-23T21:57:43.064Z,1.60
2023-04-23T22:00:14.210Z,1.73
2023-04-23T22:02:46.769Z,1.60
2023-04-23T22:05:17.045Z,1.63
2023-04-23T22:07:44.819Z,1.60
2023-04-23T22:10:14.950Z,1.40
2023-04-23T22:12:45.163Z,1.60
2023-04-23T22:15:15.172Z,1.50
2023-04-23T22:17:47.776Z,1.50
2023-04-23T22:20:16.337Z,1.37
2023-04-23T22:22:44.249Z,1.40
2023-04-23T22:25:13.095Z,1.60
2023-04-23T22:28:00.766Z,1.50
2023-04-23T22:30:28.498Z,1.63
2023-04-23T22:33:00.523Z,1.20
2023-04-23T22:35:28.470Z,1.10
2023-04-23T22:37:56.396Z,1.00
2023-04-23T22:40:24.228Z,0.90
2023-04-23T22:42:53.535Z,1.10
2023-04-23T22:45:23.127Z,0.90
2023-04-23T22:47:51.213Z,1.37
2023-04-23T22:50:19.171Z,0.80
2023-04-23T22:52:47.207Z,0.90
2023-04-23T22:55:14.812Z,0.90
2023-04-23T22:57:42.526Z,0.73
2023-04-23T23:00:11.643Z,0.80
2023-04-23T23:02:41.655Z,1.00
2023-04-23T23:05:10.001Z,0.90
2023-04-23T23:07:38.220Z,0.90
2023-04-23T23:10:08.630Z,0.87
2023-04-23T23:12:36.576Z,0.80
2023-04-23T23:15:05.082Z,0.70
2023-04-23T23:17:33.010Z,1.00
2023-04-23T23:20:02.052Z,1.00
2023-04-23T23:22:29.846Z,0.90
2023-04-23T23:24:57.596Z,0.80
2023-04-23T23:27:25.937Z,0.60
2023-04-23T23:29:54.075Z,0.70
2023-04-23T23:32:22.241Z,0.80
2023-04-23T23:34:49.956Z,0.60
2023-04-23T23:37:19.299Z,0.70
2023-04-23T23:39:47.133Z,0.70
2023-04-23T23:42:14.816Z,0.73
2023-04-23T23:44:42.492Z,0.67
2023-04-23T23:47:10.672Z,0.60
2023-04-23T23:49:38.316Z,0.60
2023-04-23T23:52:06.289Z,0.77
2023-04-23T23:54:37.688Z,0.73
2023-04-23T23:57:05.616Z,0.80
2023-04-23T23:59:33.799Z,0.70
